Fort Ritner, Indiana
Current Conditions -  °F | °C
As of 4:53 PM on Monday 20 Oct 2014 (Local Time) from KBMG Reporting Station
Scattered Clouds Scattered Clouds  
Wind Chill: 68°   Ceiling: Unl
Heat Index: 68°   Visibility: 10mi
Dew Point: 49°   Wind: 5mph
Humidity: 50%   Direction: NA
Pressure: 29.86"   Gusts: NA
Location:  38.77°N, 86.28°W
Report Text: KBMG 202053Z VRB04KT 10SM SCT046 20/09 A2986 RMK AO2 SLP107 T02000094 56012
Loading
Personal Weather Stations






























Interactive Weather Map
Tropical Storm Tracking
New forecast layout! Learn more

10-Day Weather Forecast

Advertisements
Track Severe Weather on mobile